»·PEaware :: N2983C KBUR-KLAS

N2983C :: KBUR-KLAS

FLIGHT INFORMATION

Flight Status: Arrived
Operator: Privately registered:
United States
More flights under this callsign
Pilot: Roland C. (21206)
Aircraft: CESSNA 172 SKYHAWK
(C172)
More flights by this aircraft type
Origin: KBUR Bob Hope-Burbank
United States
Destination: KLAS McCarran Intl
United States
More flights between these airports :: More routes between these airports
Route: +VNY3 DAG CRESO4
File this flight plan on PilotEdge
Remarks:
Altitude:
(Current/Filed)
11,000ft
Speed:
(Current/Filed)
110kts
Departed: 22-Mar-20 01:07 PM
Arrived: 22-Mar-20 03:03 PM
Distance/Time
Traveled:
194nm/1:56
Distance/Time
To Go:
Arrived

Flight Plot

Page will automatically refresh every two minutes.

Flight plan parsing failed; only flown route is shown


Map Options




Map Legend


Flown Route
Filed Route
Departure Airport
Arrival Airport
Navaid (VOR, NDB)
Fix

Horizontal Profiles

Position Reports

Time Latitude Longitude Heading Altitude Ground
Speed
22-Mar-20 12:23 34.200215 -118.358845 0 721ft 0kts
22-Mar-20 12:24 34.200215 -118.358845 258 721ft 0kts
22-Mar-20 12:25 34.200215 -118.358845 258 721ft 0kts
22-Mar-20 12:26 34.200215 -118.358845 258 721ft 0kts
22-Mar-20 12:27 34.200215 -118.358845 258 721ft 0kts
22-Mar-20 12:28 34.200215 -118.358845 258 721ft 0kts
22-Mar-20 12:29 34.200215 -118.358845 258 721ft 0kts
22-Mar-20 12:30 34.200215 -118.358845 258 721ft 0kts
22-Mar-20 12:31 34.200215 -118.358845 258 721ft 0kts
22-Mar-20 12:32 34.200215 -118.358845 258 721ft 0kts
22-Mar-20 12:34 34.200215 -118.358845 258 721ft 0kts
22-Mar-20 12:35 34.200215 -118.358845 258 721ft 0kts
22-Mar-20 12:36 34.200215 -118.358845 258 721ft 0kts
22-Mar-20 12:37 34.200215 -118.358845 258 721ft 0kts
22-Mar-20 12:38 34.200215 -118.358845 258 721ft 0kts
22-Mar-20 12:39 34.200215 -118.358845 258 721ft 0kts
22-Mar-20 12:40 34.200215 -118.358845 258 721ft 0kts
22-Mar-20 12:41 34.200215 -118.358845 258 721ft 0kts
22-Mar-20 12:42 34.200215 -118.358845 258 721ft 0kts
22-Mar-20 12:43 34.200215 -118.358845 258 721ft 0kts
22-Mar-20 12:44 34.200215 -118.358845 258 721ft 0kts
22-Mar-20 12:45 34.200215 -118.358845 258 721ft 0kts
22-Mar-20 12:46 34.200215 -118.358845 258 721ft 0kts
22-Mar-20 12:47 34.200215 -118.358845 258 721ft 0kts
22-Mar-20 12:48 34.200215 -118.358845 258 721ft 0kts
22-Mar-20 12:49 34.200215 -118.358845 258 721ft 0kts
22-Mar-20 12:50 34.200215 -118.358845 258 721ft 0kts
22-Mar-20 12:50 34.200215 -118.358845 258 721ft 0kts
22-Mar-20 12:52 34.200215 -118.358845 258 721ft 0kts
22-Mar-20 12:53 34.200215 -118.358845 258 721ft 0kts
22-Mar-20 12:53 34.200215 -118.358845 258 721ft 0kts
22-Mar-20 12:54 34.200215 -118.358845 258 721ft 0kts
22-Mar-20 12:56 34.200215 -118.358845 258 721ft 0kts
22-Mar-20 12:57 34.200300 -118.359199 340 722ft 9kts
22-Mar-20 12:57 34.203095 -118.359061 349 733ft 10kts
22-Mar-20 12:58 34.207274 -118.360207 348 748ft 18kts
22-Mar-20 13:00 34.211575 -118.361165 38 767ft 0kts
22-Mar-20 13:00 34.211575 -118.361165 38 767ft 0kts
22-Mar-20 13:01 34.211575 -118.361165 38 767ft 0kts
22-Mar-20 13:02 34.211575 -118.361165 38 767ft 0kts
22-Mar-20 13:03 34.211575 -118.361165 38 767ft 0kts
22-Mar-20 13:04 34.211575 -118.361165 38 767ft 0kts
22-Mar-20 13:05 34.211575 -118.361165 38 767ft 0kts
22-Mar-20 13:06 34.203940 -118.358126 166 846ft 78kts
22-Mar-20 13:07 34.181366 -118.356549 213 1545ft 84kts
22-Mar-20 13:08 34.167265 -118.378071 224 2294ft 83kts
22-Mar-20 13:09 34.151880 -118.401323 226 2968ft 91kts
22-Mar-20 13:10 34.145201 -118.429780 271 3666ft 95kts
22-Mar-20 13:11 34.146876 -118.461803 270 4307ft 95kts
22-Mar-20 13:12 34.148886 -118.493151 268 4937ft 92kts
22-Mar-20 13:13 34.159122 -118.520940 322 5529ft 96kts
22-Mar-20 13:14 34.184139 -118.532985 334 6111ft 101kts
22-Mar-20 13:15 34.208406 -118.550642 328 6625ft 102kts
22-Mar-20 13:16 34.231383 -118.566481 328 7196ft 100kts
22-Mar-20 13:17 34.259257 -118.584517 329 7274ft 127kts
22-Mar-20 13:18 34.291163 -118.605310 330 7262ft 131kts
22-Mar-20 13:19 34.319503 -118.590357 59 7266ft 124kts
22-Mar-20 13:20 34.338347 -118.556605 45 7295ft 121kts
22-Mar-20 13:21 34.351900 -118.530350 66 8013ft 57kts
22-Mar-20 13:22 34.358682 -118.506873 84 8303ft 78kts
22-Mar-20 13:23 34.368874 -118.483843 36 8743ft 88kts
22-Mar-20 13:24 34.383958 -118.463162 64 9179ft 80kts
22-Mar-20 13:25 34.397766 -118.439541 58 9498ft 91kts
22-Mar-20 13:26 34.412837 -118.414981 57 9870ft 93kts
22-Mar-20 13:27 34.428169 -118.390457 52 10240ft 95kts
22-Mar-20 13:28 34.444740 -118.364165 54 10552ft 101kts
22-Mar-20 13:29 34.462195 -118.336403 53 10829ft 106kts
22-Mar-20 13:30 34.480967 -118.306612 53 10989ft 122kts
22-Mar-20 13:31 34.503252 -118.271244 53 10981ft 137kts
22-Mar-20 13:32 34.526840 -118.233719 53 10980ft 141kts
22-Mar-20 13:33 34.550092 -118.196582 53 10979ft 135kts
22-Mar-20 13:34 34.572695 -118.160494 53 10981ft 133kts
22-Mar-20 13:35 34.595293 -118.124528 53 10983ft 132kts
22-Mar-20 13:36 34.617548 -118.088976 53 10981ft 132kts
22-Mar-20 13:37 34.633356 -118.049800 84 10982ft 129kts
22-Mar-20 13:38 34.638941 -118.006773 86 10982ft 129kts
22-Mar-20 13:39 34.643968 -117.963164 86 10975ft 132kts
22-Mar-20 13:40 34.648825 -117.918081 85 10984ft 136kts
22-Mar-20 13:41 34.653852 -117.872429 87 10987ft 136kts
22-Mar-20 13:42 34.658914 -117.826969 87 10982ft 134kts
22-Mar-20 13:43 34.663900 -117.781466 86 10960ft 139kts
22-Mar-20 13:44 34.672924 -117.736995 76 10981ft 135kts
22-Mar-20 13:45 34.684345 -117.692490 74 10994ft 136kts
22-Mar-20 13:46 34.695590 -117.649193 76 10985ft 133kts
22-Mar-20 13:47 34.706694 -117.606054 76 10985ft 133kts
22-Mar-20 13:48 34.717731 -117.562963 75 10976ft 134kts
22-Mar-20 13:49 34.729007 -117.519135 76 10985ft 135kts
22-Mar-20 13:50 34.740194 -117.475607 77 10984ft 133kts
22-Mar-20 13:51 34.751133 -117.433078 75 11000ft 131kts
22-Mar-20 13:52 34.762125 -117.389989 76 10981ft 133kts
22-Mar-20 13:53 34.773183 -117.346343 76 10988ft 133kts
22-Mar-20 13:54 34.784147 -117.303295 75 10970ft 133kts
22-Mar-20 13:55 34.795154 -117.260338 77 10980ft 134kts
22-Mar-20 13:56 34.805930 -117.217821 76 10974ft 128kts
22-Mar-20 13:57 34.816307 -117.177023 76 10975ft 125kts
22-Mar-20 13:58 34.826554 -117.136415 76 10976ft 125kts
22-Mar-20 13:59 34.836771 -117.095986 76 10975ft 125kts
22-Mar-20 14:00 34.847016 -117.055303 76 10978ft 124kts
22-Mar-20 14:01 34.857249 -117.014822 77 10978ft 125kts
22-Mar-20 14:02 34.867435 -116.974333 77 10975ft 124kts
22-Mar-20 14:03 34.877505 -116.934157 76 10974ft 124kts
22-Mar-20 14:04 34.887602 -116.893919 76 10973ft 123kts
22-Mar-20 14:05 34.897639 -116.853822 76 10973ft 123kts
22-Mar-20 14:06 34.907650 -116.813778 76 10973ft 123kts
22-Mar-20 14:07 34.917668 -116.773674 76 10973ft 123kts
22-Mar-20 14:08 34.927647 -116.733653 76 10973ft 123kts
22-Mar-20 14:09 34.937576 -116.693737 76 10973ft 123kts
22-Mar-20 14:10 34.947521 -116.653743 76 10974ft 123kts
22-Mar-20 14:11 34.957425 -116.613797 76 10974ft 123kts
22-Mar-20 14:12 34.968634 -116.574364 69 10974ft 123kts
22-Mar-20 14:13 34.982454 -116.535976 66 10974ft 124kts
22-Mar-20 14:14 34.998342 -116.498473 64 10974ft 124kts
22-Mar-20 14:15 35.014836 -116.461050 63 10974ft 124kts
22-Mar-20 14:16 35.031345 -116.423924 63 10974ft 124kts
22-Mar-20 14:17 35.047979 -116.386540 63 10950ft 126kts
22-Mar-20 14:18 35.064693 -116.348944 64 10947ft 125kts
22-Mar-20 14:19 35.081236 -116.311700 64 10945ft 124kts
22-Mar-20 14:20 35.097612 -116.274828 64 10946ft 123kts
22-Mar-20 14:21 35.113963 -116.237950 64 10943ft 122kts
22-Mar-20 14:22 35.130132 -116.201434 64 10943ft 122kts
22-Mar-20 14:23 35.146227 -116.165047 64 10943ft 121kts
22-Mar-20 14:24 35.162387 -116.128492 64 10944ft 122kts
22-Mar-20 14:25 35.178495 -116.092003 64 10944ft 122kts
22-Mar-20 14:26 35.194561 -116.055583 64 10944ft 122kts
22-Mar-20 14:27 35.210658 -116.019072 64 10944ft 122kts
22-Mar-20 14:28 35.226744 -115.982460 64 10944ft 122kts
22-Mar-20 14:29 35.242874 -115.945811 64 10944ft 122kts
22-Mar-20 14:30 35.258969 -115.909161 64 10944ft 122kts
22-Mar-20 14:31 35.274862 -115.869987 69 10649ft 138kts
22-Mar-20 14:32 35.288423 -115.826227 71 10156ft 136kts
22-Mar-20 14:33 35.308041 -115.789187 49 9996ft 118kts
22-Mar-20 14:34 35.331671 -115.760574 47 10002ft 121kts
22-Mar-20 14:35 35.355127 -115.730356 48 10001ft 123kts
22-Mar-20 14:36 35.378580 -115.699397 48 10003ft 124kts
22-Mar-20 14:37 35.401970 -115.668329 49 10006ft 124kts
22-Mar-20 14:38 35.425285 -115.637297 49 10008ft 124kts
22-Mar-20 14:39 35.448688 -115.606133 49 10011ft 124kts
22-Mar-20 14:41 35.472066 -115.574928 49 10013ft 124kts
22-Mar-20 14:42 35.495415 -115.543793 49 10017ft 124kts
22-Mar-20 14:43 35.518825 -115.512537 49 10019ft 124kts
22-Mar-20 14:44 35.542226 -115.481284 49 10019ft 124kts
22-Mar-20 14:45 35.565575 -115.450046 49 10019ft 124kts
22-Mar-20 14:46 35.589343 -115.416793 52 9748ft 135kts
22-Mar-20 14:47 35.614946 -115.382214 47 9334ft 135kts
22-Mar-20 14:48 35.640378 -115.348215 51 8834ft 133kts
22-Mar-20 14:49 35.664907 -115.314730 50 8310ft 130kts
22-Mar-20 14:50 35.697334 -115.296278 12 7738ft 133kts
22-Mar-20 14:51 35.733685 -115.287559 12 7196ft 133kts
22-Mar-20 14:52 35.768463 -115.278998 12 7027ft 118kts
22-Mar-20 14:53 35.800267 -115.271495 12 7029ft 115kts
22-Mar-20 14:54 35.833059 -115.263117 14 6750ft 132kts
22-Mar-20 14:55 35.870552 -115.253318 12 6013ft 140kts
22-Mar-20 14:56 35.908142 -115.244353 11 5527ft 126kts
22-Mar-20 14:57 35.940249 -115.237078 11 5530ft 115kts
22-Mar-20 14:58 35.972923 -115.228704 21 5467ft 127kts
22-Mar-20 14:58 35.999278 -115.213677 27 4976ft 121kts
22-Mar-20 15:00 36.034455 -115.193571 25 3755ft 118kts
22-Mar-20 15:01 36.062257 -115.177917 28 2699ft 93kts
22-Mar-20 15:02 36.082018 -115.166524 12 2155ft 51kts
22-Mar-20 15:02 36.088423 -115.162890 15 2129ft 19kts
22-Mar-20 15:03 36.089387 -115.163464 297 2128ft 0kts
22-Mar-20 15:05 36.089387 -115.163464 297 2128ft 0kts
22-Mar-20 15:05 36.089481 -115.163678 300 2129ft 0kts
22-Mar-20 15:06 36.092084 -115.163173 24 2119ft 23kts
22-Mar-20 15:07 36.097642 -115.160119 329 2097ft 6kts
22-Mar-20 15:08 36.098739 -115.161260 325 2101ft 0kts
22-Mar-20 15:09 36.098739 -115.161260 325 2101ft 0kts
22-Mar-20 15:10 36.098739 -115.161259 325 2101ft 0kts
22-Mar-20 15:11 36.098739 -115.161259 325 2101ft 0kts
22-Mar-20 15:12 36.098739 -115.161259 325 2101ft 0kts

Navigation Log

Ident Type
Flight plan parsing failed, navigation log unavailable